createdAt,value
2023-02-11T00:01:15.436Z,83.60
2023-02-11T00:03:42.498Z,83.70
2023-02-11T00:06:10.747Z,83.70
2023-02-11T00:08:38.618Z,83.70
2023-02-11T00:11:05.900Z,83.70
2023-02-11T00:13:32.902Z,83.80
2023-02-11T00:15:59.859Z,83.80
2023-02-11T00:18:27.749Z,83.80
2023-02-11T00:20:54.738Z,83.80
2023-02-11T00:23:21.747Z,83.70
2023-02-11T00:25:48.969Z,83.70
2023-02-11T00:28:16.118Z,83.70
2023-02-11T00:30:43.260Z,83.70
2023-02-11T00:33:10.457Z,83.60
2023-02-11T00:35:38.753Z,83.60
2023-02-11T00:38:08.103Z,83.60
2023-02-11T00:40:35.194Z,83.60
2023-02-11T00:43:04.029Z,83.60
2023-02-11T00:45:31.095Z,83.60
2023-02-11T00:47:58.188Z,83.60
2023-02-11T00:50:25.613Z,83.50
2023-02-11T00:52:52.630Z,83.50
2023-02-11T00:55:19.651Z,83.50
2023-02-11T00:57:46.656Z,83.50
2023-02-11T01:00:16.846Z,83.50
2023-02-11T01:02:45.039Z,83.50
2023-02-11T01:05:12.036Z,83.50
2023-02-11T01:07:39.146Z,83.50
2023-02-11T01:10:06.397Z,83.50
2023-02-11T01:12:36.197Z,83.50
2023-02-11T01:15:04.741Z,83.50
2023-02-11T01:17:33.550Z,83.60
2023-02-11T01:20:06.128Z,83.60
2023-02-11T01:22:34.481Z,83.60
2023-02-11T01:25:01.539Z,83.60
2023-02-11T01:27:28.729Z,83.60
2023-02-11T01:29:57.710Z,83.60
2023-02-11T01:32:24.915Z,83.70
2023-02-11T01:34:54.873Z,83.70
2023-02-11T01:37:21.912Z,83.70
2023-02-11T01:39:48.884Z,83.70
2023-02-11T01:42:18.045Z,83.70
2023-02-11T01:44:45.226Z,83.70
2023-02-11T01:47:12.246Z,83.70
2023-02-11T01:49:44.509Z,83.70
2023-02-11T01:52:14.238Z,83.70
2023-02-11T01:55:08.318Z,83.70
2023-02-11T01:57:38.034Z,83.80
2023-02-11T02:00:21.614Z,83.80
2023-02-11T02:03:06.724Z,83.80
2023-02-11T02:05:58.410Z,83.90
2023-02-11T02:08:25.424Z,83.90
2023-02-11T02:10:56.600Z,84.00
2023-02-11T02:13:24.767Z,84.00
2023-02-11T02:16:09.955Z,84.00
2023-02-11T02:18:55.964Z,84.10
2023-02-11T02:21:41.789Z,84.10
2023-02-11T02:24:46.163Z,84.10
2023-02-11T02:27:39.440Z,84.20
2023-02-11T02:30:21.324Z,84.20
2023-02-11T02:33:24.052Z,84.20
2023-02-11T02:36:14.702Z,84.20
2023-02-11T02:39:07.459Z,84.20
2023-02-11T02:41:37.086Z,84.20
2023-02-11T02:44:04.792Z,84.30
2023-02-11T02:46:34.055Z,84.20
2023-02-11T02:49:01.305Z,84.20
2023-02-11T02:51:45.733Z,84.30
2023-02-11T02:54:24.478Z,84.30
2023-02-11T02:57:09.976Z,84.30
2023-02-11T03:00:00.033Z,84.30
2023-02-11T03:02:53.086Z,84.30
2023-02-11T03:05:44.681Z,84.40
2023-02-11T03:08:51.429Z,84.40
2023-02-11T03:11:20.366Z,84.40
2023-02-11T03:13:48.829Z,84.40
2023-02-11T03:16:25.299Z,84.50
2023-02-11T03:19:10.343Z,84.50
2023-02-11T03:21:39.360Z,84.50
2023-02-11T03:24:10.833Z,84.60
2023-02-11T03:26:46.602Z,84.60
2023-02-11T03:29:32.066Z,84.60
2023-02-11T03:32:07.568Z,84.60
2023-02-11T03:34:45.712Z,84.70
2023-02-11T03:37:33.356Z,84.70
2023-02-11T03:40:13.654Z,84.70
2023-02-11T03:42:51.779Z,84.70
2023-02-11T03:45:22.382Z,84.70
2023-02-11T03:47:55.178Z,84.70
2023-02-11T03:50:24.114Z,84.70
2023-02-11T03:52:51.662Z,84.70
2023-02-11T03:55:21.162Z,84.70
2023-02-11T03:57:48.795Z,84.70
2023-02-11T04:00:16.245Z,84.70
2023-02-11T04:02:43.663Z,84.70
2023-02-11T04:05:13.137Z,84.60
2023-02-11T04:07:40.214Z,84.70
2023-02-11T04:10:07.791Z,84.60
2023-02-11T04:12:34.777Z,84.70
2023-02-11T04:15:01.724Z,84.70
2023-02-11T04:17:28.754Z,84.70
2023-02-11T04:19:55.805Z,84.70
2023-02-11T04:22:22.809Z,84.70
2023-02-11T04:24:49.790Z,84.70
2023-02-11T04:27:17.053Z,84.80
2023-02-11T04:29:43.987Z,84.80
2023-02-11T04:32:12.321Z,84.90
2023-02-11T04:34:39.494Z,84.90
2023-02-11T04:37:06.679Z,85.00
2023-02-11T04:39:33.713Z,85.00
2023-02-11T04:42:00.769Z,85.00
2023-02-11T04:44:27.711Z,85.10
2023-02-11T04:46:54.827Z,85.10
2023-02-11T04:49:22.018Z,85.10
2023-02-11T04:51:49.638Z,85.10
2023-02-11T04:54:17.141Z,85.20
2023-02-11T04:56:44.358Z,85.20
2023-02-11T04:59:13.049Z,85.20
2023-02-11T05:01:40.577Z,85.20
2023-02-11T05:04:07.707Z,85.30
2023-02-11T05:06:34.863Z,85.30
2023-02-11T05:09:01.932Z,85.30
2023-02-11T05:11:28.983Z,85.30
2023-02-11T05:13:55.986Z,85.30
2023-02-11T05:16:23.453Z,85.40
2023-02-11T05:18:52.522Z,85.40
2023-02-11T05:21:20.486Z,85.40
2023-02-11T05:23:47.907Z,85.40
2023-02-11T05:26:15.327Z,85.40
2023-02-11T05:28:43.096Z,85.40
2023-02-11T05:31:10.439Z,85.40
2023-02-11T05:33:37.927Z,85.40
2023-02-11T05:36:08.448Z,85.50
2023-02-11T05:38:36.667Z,85.50
2023-02-11T05:41:04.485Z,85.50
2023-02-11T05:43:31.577Z,85.50
2023-02-11T05:45:59.101Z,85.50
2023-02-11T05:48:26.155Z,85.60
2023-02-11T05:50:53.060Z,85.60
2023-02-11T05:53:20.170Z,85.60
2023-02-11T05:55:47.158Z,85.60
2023-02-11T05:58:14.130Z,85.60
2023-02-11T06:00:41.121Z,85.60
2023-02-11T06:03:08.191Z,85.60
2023-02-11T06:05:35.198Z,85.60
2023-02-11T06:08:02.223Z,85.60
2023-02-11T06:10:29.246Z,85.70
2023-02-11T06:12:56.310Z,85.60
2023-02-11T06:15:23.354Z,85.60
2023-02-11T06:17:51.733Z,85.60
2023-02-11T06:20:19.029Z,85.60
2023-02-11T06:22:46.252Z,85.60
2023-02-11T06:25:13.419Z,85.60
2023-02-11T06:27:40.690Z,85.60
2023-02-11T06:30:08.635Z,85.60
2023-02-11T06:32:43.843Z,85.60
2023-02-11T06:35:12.757Z,85.60
2023-02-11T06:37:41.124Z,85.60
2023-02-11T06:40:08.544Z,85.60
2023-02-11T06:42:36.341Z,85.60
2023-02-11T06:45:06.175Z,85.50
2023-02-11T06:47:33.295Z,85.50
2023-02-11T06:50:00.229Z,85.60
2023-02-11T06:52:27.277Z,85.60
2023-02-11T06:54:54.247Z,85.60
2023-02-11T06:57:21.315Z,85.60
2023-02-11T06:59:48.337Z,85.60
2023-02-11T07:02:15.418Z,85.60
2023-02-11T07:04:42.472Z,85.70
2023-02-11T07:07:09.518Z,85.70
2023-02-11T07:09:36.470Z,85.70
2023-02-11T07:12:03.821Z,85.80
2023-02-11T07:14:30.798Z,85.80
2023-02-11T07:16:58.155Z,85.90
2023-02-11T07:19:25.133Z,85.90
2023-02-11T07:21:52.110Z,85.90
2023-02-11T07:24:19.045Z,85.90
2023-02-11T07:26:46.139Z,86.00
2023-02-11T07:29:13.110Z,86.00
2023-02-11T07:31:40.307Z,86.10
2023-02-11T07:34:07.434Z,86.10
2023-02-11T07:36:34.513Z,86.10
2023-02-11T07:39:01.544Z,86.10
2023-02-11T07:41:28.627Z,86.20
2023-02-11T07:43:56.100Z,86.20
2023-02-11T07:46:25.665Z,86.20
2023-02-11T07:48:52.894Z,86.20
2023-02-11T07:51:23.383Z,86.20
2023-02-11T07:53:50.796Z,86.20
2023-02-11T07:56:18.993Z,86.30
2023-02-11T07:58:46.796Z,86.20
2023-02-11T08:01:25.098Z,86.30
2023-02-11T08:03:53.325Z,86.30
2023-02-11T08:06:22.078Z,86.30
2023-02-11T08:08:49.574Z,86.20
2023-02-11T08:11:19.186Z,86.30
2023-02-11T08:13:46.492Z,86.30
2023-02-11T08:16:23.280Z,86.30
2023-02-11T08:18:51.412Z,86.30
2023-02-11T08:21:19.110Z,86.30
2023-02-11T08:23:46.764Z,86.30
2023-02-11T08:26:19.557Z,86.40
2023-02-11T08:28:48.425Z,86.40
2023-02-11T08:31:25.008Z,86.40
2023-02-11T08:33:52.263Z,86.40
2023-02-11T08:36:21.837Z,86.40
2023-02-11T08:38:49.196Z,86.40
2023-02-11T08:41:16.248Z,86.40
2023-02-11T08:43:44.393Z,86.50
2023-02-11T08:46:16.342Z,86.50
2023-02-11T08:48:44.342Z,86.50
2023-02-11T08:51:19.515Z,86.60
2023-02-11T08:53:47.097Z,86.60
2023-02-11T08:56:15.417Z,86.60
2023-02-11T08:58:43.282Z,86.60
2023-02-11T09:01:14.743Z,86.70
2023-02-11T09:03:41.873Z,86.70
2023-02-11T09:06:10.808Z,86.70
2023-02-11T09:08:40.455Z,86.80
2023-02-11T09:11:07.832Z,86.80
2023-02-11T09:13:35.002Z,86.80
2023-02-11T09:16:04.512Z,86.90
2023-02-11T09:18:32.294Z,86.90
2023-02-11T09:21:07.807Z,86.90
2023-02-11T09:23:35.126Z,86.90
2023-02-11T09:26:10.465Z,86.90
2023-02-11T09:28:37.575Z,87.00
2023-02-11T09:31:09.627Z,87.00
2023-02-11T09:33:38.647Z,87.00
2023-02-11T09:36:06.840Z,87.00
2023-02-11T09:38:34.418Z,87.10
2023-02-11T09:41:04.092Z,87.10
2023-02-11T09:43:44.244Z,87.10
2023-02-11T09:46:16.211Z,87.20
2023-02-11T09:48:45.694Z,87.20
2023-02-11T09:51:44.794Z,87.20
2023-02-11T09:54:19.354Z,87.20
2023-02-11T09:56:46.477Z,87.20
2023-02-11T09:59:17.692Z,87.20
2023-02-11T10:01:49.113Z,87.20
2023-02-11T10:04:28.228Z,87.20
2023-02-11T10:07:18.749Z,87.20
2023-02-11T10:09:54.009Z,87.20
2023-02-11T10:12:56.593Z,87.20
2023-02-11T10:15:52.201Z,87.20
2023-02-11T10:18:37.406Z,87.20
2023-02-11T10:21:30.849Z,87.20
2023-02-11T10:24:01.856Z,87.20
2023-02-11T10:26:31.665Z,87.20
2023-02-11T10:29:05.664Z,87.20
2023-02-11T10:31:43.678Z,87.20
2023-02-11T10:34:13.892Z,87.10
2023-02-11T10:36:44.742Z,87.10
2023-02-11T10:39:14.046Z,87.10
2023-02-11T10:41:57.312Z,87.10
2023-02-11T10:44:33.953Z,87.10
2023-02-11T10:47:06.144Z,87.10
2023-02-11T10:49:34.758Z,87.00
2023-02-11T10:52:26.959Z,87.00
2023-02-11T10:55:27.936Z,87.00
2023-02-11T10:58:02.865Z,87.00
2023-02-11T11:00:40.934Z,86.90
2023-02-11T11:03:21.783Z,86.90
2023-02-11T11:05:51.878Z,86.90
2023-02-11T11:08:19.683Z,86.90
2023-02-11T11:11:08.658Z,86.80
2023-02-11T11:13:41.074Z,86.80
2023-02-11T11:16:13.896Z,86.80
2023-02-11T11:18:46.812Z,86.80
2023-02-11T11:21:16.022Z,86.70
2023-02-11T11:23:50.417Z,86.70
2023-02-11T11:26:18.202Z,86.70
2023-02-11T11:29:07.721Z,86.60
2023-02-11T11:31:45.184Z,86.60
2023-02-11T11:34:22.192Z,86.60
2023-02-11T11:36:53.060Z,86.60
2023-02-11T11:39:32.631Z,86.50
2023-02-11T11:42:00.859Z,86.50
2023-02-11T11:44:37.476Z,86.50
2023-02-11T11:47:22.067Z,86.50
2023-02-11T11:50:12.122Z,86.40
2023-02-11T11:52:49.743Z,86.40
2023-02-11T11:55:25.362Z,86.40
2023-02-11T11:57:52.516Z,86.30
2023-02-11T12:00:24.000Z,86.30
2023-02-11T12:02:57.049Z,86.30
2023-02-11T12:05:33.051Z,86.30
2023-02-11T12:08:00.028Z,86.30
2023-02-11T12:10:54.737Z,86.20
2023-02-11T12:13:35.769Z,86.20
2023-02-11T12:16:26.464Z,86.20
2023-02-11T12:19:34.056Z,86.20
2023-02-11T12:22:11.166Z,86.10
2023-02-11T12:24:44.084Z,86.10
2023-02-11T12:27:48.628Z,86.10
2023-02-11T12:30:53.247Z,86.00
2023-02-11T12:33:44.936Z,86.00
2023-02-11T12:36:24.073Z,85.80
2023-02-11T12:39:12.195Z,85.80
2023-02-11T12:42:09.526Z,85.70
2023-02-11T12:44:56.018Z,85.60
2023-02-11T12:47:43.622Z,85.40
2023-02-11T12:50:41.680Z,85.30
2023-02-11T12:53:36.642Z,85.30
2023-02-11T12:56:32.706Z,85.20
2023-02-11T12:59:01.640Z,85.20
2023-02-11T13:01:37.374Z,85.30
2023-02-11T13:04:13.184Z,85.20
2023-02-11T13:06:55.512Z,85.20
2023-02-11T13:09:26.843Z,85.20
2023-02-11T13:12:20.659Z,85.10
2023-02-11T13:14:49.956Z,85.00
2023-02-11T13:17:41.606Z,85.00
2023-02-11T13:20:25.503Z,85.00
2023-02-11T13:23:12.775Z,84.90
2023-02-11T13:25:52.964Z,84.80
2023-02-11T13:28:26.418Z,84.70
2023-02-11T13:31:02.612Z,84.70
2023-02-11T13:33:37.782Z,84.60
2023-02-11T13:36:04.951Z,84.60
2023-02-11T13:38:32.781Z,84.50
2023-02-11T13:41:02.697Z,84.40
2023-02-11T13:43:31.503Z,84.40
2023-02-11T13:46:04.818Z,84.40
2023-02-11T13:48:33.358Z,84.40
2023-02-11T13:51:04.924Z,84.30
2023-02-11T13:53:46.774Z,84.20
2023-02-11T13:56:29.664Z,84.00
2023-02-11T13:59:01.465Z,83.90
2023-02-11T14:02:17.752Z,83.70
2023-02-11T14:05:37.831Z,83.60
2023-02-11T14:08:26.228Z,83.50
2023-02-11T14:10:54.502Z,83.50
2023-02-11T14:13:32.802Z,83.50
2023-02-11T14:16:10.762Z,83.50
2023-02-11T14:18:39.328Z,83.40
2023-02-11T14:21:28.968Z,83.30
2023-02-11T14:24:01.997Z,83.20
2023-02-11T14:26:44.355Z,83.10
2023-02-11T14:29:23.011Z,83.10
2023-02-11T14:32:05.366Z,83.00
2023-02-11T14:34:55.558Z,82.80
2023-02-11T14:37:51.094Z,82.70
2023-02-11T14:40:39.549Z,82.60
2023-02-11T14:43:30.007Z,82.40
2023-02-11T14:45:58.474Z,82.20
2023-02-11T14:48:31.469Z,82.10
2023-02-11T14:51:00.856Z,82.10
2023-02-11T14:53:30.257Z,82.00
2023-02-11T14:55:57.581Z,81.90
2023-02-11T14:58:29.591Z,81.80
2023-02-11T15:01:02.537Z,81.60
2023-02-11T15:03:39.302Z,81.50
2023-02-11T15:06:18.922Z,81.30
2023-02-11T15:08:53.522Z,81.20
2023-02-11T15:11:22.687Z,81.00
2023-02-11T15:13:50.521Z,80.80
2023-02-11T15:16:23.895Z,80.70
2023-02-11T15:19:01.421Z,80.50
2023-02-11T15:21:31.106Z,80.50
2023-02-11T15:24:03.301Z,80.40
2023-02-11T15:26:30.776Z,80.40
2023-02-11T15:28:57.883Z,80.30
2023-02-11T15:31:27.264Z,80.30
2023-02-11T15:33:55.261Z,80.30
2023-02-11T15:36:28.753Z,80.20
2023-02-11T15:39:18.677Z,80.20
2023-02-11T15:41:45.797Z,80.20
2023-02-11T15:44:30.607Z,80.30
2023-02-11T15:46:58.139Z,80.20
2023-02-11T15:49:26.484Z,80.10
2023-02-11T15:51:55.614Z,80.10
2023-02-11T15:54:29.475Z,80.00
2023-02-11T15:57:02.125Z,80.00
2023-02-11T15:59:40.648Z,80.00
2023-02-11T16:02:09.888Z,80.00
2023-02-11T16:04:37.734Z,80.00
2023-02-11T16:07:05.259Z,80.00
2023-02-11T16:09:34.817Z,80.00
2023-02-11T16:12:07.547Z,79.90
2023-02-11T16:14:42.296Z,79.90
2023-02-11T16:17:13.067Z,79.90
2023-02-11T16:19:49.158Z,80.00
2023-02-11T16:22:24.969Z,80.00
2023-02-11T16:24:54.725Z,80.00
2023-02-11T16:27:41.280Z,80.00
2023-02-11T16:30:28.980Z,80.10
2023-02-11T16:32:56.003Z,80.20
2023-02-11T16:35:22.942Z,80.20
2023-02-11T16:37:50.002Z,80.30
2023-02-11T16:40:17.192Z,80.30
2023-02-11T16:42:44.173Z,80.30
2023-02-11T16:45:12.130Z,80.30
2023-02-11T16:47:42.607Z,80.30
2023-02-11T16:50:12.158Z,80.30
2023-02-11T16:52:39.192Z,80.30
2023-02-11T16:55:06.755Z,80.30
2023-02-11T16:57:33.878Z,80.30
2023-02-11T17:00:00.992Z,80.30
2023-02-11T17:02:35.007Z,80.40
2023-02-11T17:05:03.533Z,80.40
2023-02-11T17:07:31.056Z,80.40
2023-02-11T17:09:58.575Z,80.50
2023-02-11T17:12:25.909Z,80.50
2023-02-11T17:14:53.859Z,80.60
2023-02-11T17:17:23.259Z,80.60
2023-02-11T17:19:51.151Z,80.70
2023-02-11T17:22:18.794Z,80.70
2023-02-11T17:24:45.977Z,80.80
2023-02-11T17:27:13.208Z,80.80
2023-02-11T17:29:40.214Z,80.80
2023-02-11T17:32:07.276Z,80.80
2023-02-11T17:34:34.417Z,80.90
2023-02-11T17:37:03.201Z,80.90
2023-02-11T17:39:30.226Z,80.90
2023-02-11T17:41:57.167Z,81.00
2023-02-11T17:44:24.137Z,81.00
2023-02-11T17:46:51.256Z,81.00
2023-02-11T17:49:19.273Z,81.10
2023-02-11T17:51:46.689Z,81.20
2023-02-11T17:54:16.922Z,81.20
2023-02-11T17:56:45.118Z,81.30
2023-02-11T17:59:14.080Z,81.30
2023-02-11T18:01:42.348Z,81.30
2023-02-11T18:04:13.630Z,81.40
2023-02-11T18:06:40.863Z,81.40
2023-02-11T18:09:07.911Z,81.40
2023-02-11T18:11:37.185Z,81.50
2023-02-11T18:14:07.782Z,81.50
2023-02-11T18:16:36.691Z,81.60
2023-02-11T18:19:04.057Z,81.60
2023-02-11T18:21:31.044Z,81.60
2023-02-11T18:24:01.121Z,81.70
2023-02-11T18:26:29.812Z,81.70
2023-02-11T18:29:00.557Z,81.70
2023-02-11T18:31:28.138Z,81.80
2023-02-11T18:33:55.363Z,81.90
2023-02-11T18:36:23.008Z,81.90
2023-02-11T18:38:50.098Z,82.00
2023-02-11T18:41:17.140Z,82.00
2023-02-11T18:43:44.189Z,82.10
2023-02-11T18:46:13.303Z,82.10
2023-02-11T18:48:40.956Z,82.10
2023-02-11T18:51:13.613Z,82.10
2023-02-11T18:53:40.887Z,82.20
2023-02-11T18:56:10.754Z,82.20
2023-02-11T18:58:38.365Z,82.20
2023-02-11T19:01:17.778Z,82.20
2023-02-11T19:03:45.651Z,82.20
2023-02-11T19:06:21.822Z,82.20
2023-02-11T19:08:48.980Z,82.30
2023-02-11T19:11:17.960Z,82.30
2023-02-11T19:13:45.428Z,82.30
2023-02-11T19:16:14.235Z,82.30
2023-02-11T19:18:41.286Z,82.30
2023-02-11T19:21:10.288Z,82.40
2023-02-11T19:23:37.747Z,82.40
2023-02-11T19:26:06.467Z,82.40
2023-02-11T19:28:35.408Z,82.50
2023-02-11T19:31:07.245Z,82.50
2023-02-11T19:33:34.326Z,82.50
2023-02-11T19:36:09.506Z,82.60
2023-02-11T19:38:36.608Z,82.60
2023-02-11T19:41:03.557Z,82.70
2023-02-11T19:43:30.747Z,82.70
2023-02-11T19:45:58.498Z,82.80
2023-02-11T19:48:26.057Z,82.90
2023-02-11T19:50:53.430Z,82.90
2023-02-11T19:53:20.791Z,82.90
2023-02-11T19:55:48.319Z,83.00
2023-02-11T19:58:16.483Z,83.00
2023-02-11T20:00:43.757Z,83.10
2023-02-11T20:03:10.852Z,83.10
2023-02-11T20:05:43.463Z,83.20
2023-02-11T20:08:10.503Z,83.20
2023-02-11T20:10:37.442Z,83.20
2023-02-11T20:13:04.560Z,83.20
2023-02-11T20:15:31.749Z,83.20
2023-02-11T20:17:58.840Z,83.20
2023-02-11T20:20:25.864Z,83.30
2023-02-11T20:22:52.863Z,83.30
2023-02-11T20:25:19.886Z,83.30
2023-02-11T20:27:46.966Z,83.30
2023-02-11T20:30:14.450Z,83.40
2023-02-11T20:32:41.580Z,83.40
2023-02-11T20:35:09.722Z,83.40
2023-02-11T20:37:36.776Z,83.40
2023-02-11T20:40:03.919Z,83.40
2023-02-11T20:42:30.954Z,83.50
2023-02-11T20:44:57.926Z,83.50
2023-02-11T20:47:24.964Z,83.50
2023-02-11T20:49:55.086Z,83.50
2023-02-11T20:52:22.102Z,83.50
2023-02-11T20:54:49.025Z,83.50
2023-02-11T20:57:16.050Z,83.50
2023-02-11T20:59:42.940Z,83.50
2023-02-11T21:02:10.330Z,83.50
2023-02-11T21:04:39.135Z,83.50
2023-02-11T21:07:06.304Z,83.50
2023-02-11T21:09:33.716Z,83.50
2023-02-11T21:12:01.648Z,83.50
2023-02-11T21:14:29.281Z,83.50
2023-02-11T21:16:56.746Z,83.50
2023-02-11T21:19:23.977Z,83.50
2023-02-11T21:21:51.223Z,83.50
2023-02-11T21:24:18.239Z,83.50
2023-02-11T21:26:45.419Z,83.50
2023-02-11T21:29:12.389Z,83.50
2023-02-11T21:31:40.225Z,83.50
2023-02-11T21:34:07.550Z,83.50
2023-02-11T21:36:35.027Z,83.50
2023-02-11T21:39:03.889Z,83.50
2023-02-11T21:41:31.003Z,83.50
2023-02-11T21:43:57.954Z,83.60
2023-02-11T21:46:25.385Z,83.60
2023-02-11T21:48:52.686Z,83.60
2023-02-11T21:51:22.533Z,83.60
2023-02-11T21:53:57.792Z,83.60
2023-02-11T21:56:28.986Z,83.60
2023-02-11T21:58:58.350Z,83.60
2023-02-11T22:01:28.643Z,83.70
2023-02-11T22:03:56.316Z,83.70
2023-02-11T22:06:31.161Z,83.60
2023-02-11T22:08:59.528Z,83.70
2023-02-11T22:11:26.502Z,83.70
2023-02-11T22:13:55.512Z,83.80
2023-02-11T22:16:23.343Z,83.80
2023-02-11T22:18:51.536Z,83.80
2023-02-11T22:21:21.424Z,83.80
2023-02-11T22:23:49.454Z,83.90
2023-02-11T22:26:21.850Z,83.90
2023-02-11T22:28:49.936Z,83.90
2023-02-11T22:31:20.088Z,83.90
2023-02-11T22:33:47.529Z,83.90
2023-02-11T22:36:25.976Z,84.00
2023-02-11T22:38:54.116Z,84.00
2023-02-11T22:41:21.098Z,84.00
2023-02-11T22:43:48.261Z,84.10
2023-02-11T22:46:18.002Z,84.10
2023-02-11T22:48:46.167Z,84.10
2023-02-11T22:51:28.608Z,84.10
2023-02-11T22:53:58.402Z,84.10
2023-02-11T22:56:26.126Z,84.10
2023-02-11T22:58:56.553Z,84.20
2023-02-11T23:01:23.649Z,84.30
2023-02-11T23:03:50.802Z,84.20
2023-02-11T23:06:18.213Z,84.30
2023-02-11T23:08:45.501Z,84.30
2023-02-11T23:11:16.641Z,84.30
2023-02-11T23:13:45.034Z,84.30
2023-02-11T23:16:15.426Z,84.30
2023-02-11T23:18:43.988Z,84.40
2023-02-11T23:21:17.552Z,84.40
2023-02-11T23:23:45.792Z,84.40
2023-02-11T23:26:14.879Z,84.40
2023-02-11T23:28:45.933Z,84.40
2023-02-11T23:31:35.413Z,84.40
2023-02-11T23:34:02.603Z,84.40
2023-02-11T23:36:30.369Z,84.40
2023-02-11T23:38:57.425Z,84.50
2023-02-11T23:41:25.449Z,84.50
2023-02-11T23:43:55.518Z,84.50
2023-02-11T23:46:24.001Z,84.50
2023-02-11T23:48:51.819Z,84.50
2023-02-11T23:51:19.913Z,84.50
2023-02-11T23:53:49.113Z,84.50
2023-02-11T23:56:21.146Z,84.50
2023-02-11T23:58:50.189Z,84.50
